createdAt,value
2022-11-21T00:01:45.163Z,1.27
2022-11-21T00:06:37.609Z,1.20
2022-11-21T00:09:03.822Z,1.95
2022-11-21T00:11:30.101Z,2.05
2022-11-21T00:13:56.314Z,1.98
2022-11-21T00:16:22.528Z,1.48
2022-11-21T00:18:48.805Z,1.20
2022-11-21T00:21:16.361Z,2.17
2022-11-21T00:23:42.921Z,1.50
2022-11-21T00:26:10.097Z,1.30
2022-11-21T00:28:36.632Z,3.00
2022-11-21T00:31:03.552Z,1.42
2022-11-21T00:35:56.035Z,1.92
2022-11-21T00:38:24.283Z,1.45
2022-11-21T00:40:50.511Z,1.40
2022-11-21T00:43:16.712Z,1.00
2022-11-21T00:45:42.963Z,1.42
2022-11-21T00:48:09.194Z,1.33
2022-11-21T00:50:35.449Z,1.23
2022-11-21T00:53:01.649Z,1.55
2022-11-21T00:55:27.922Z,1.70
2022-11-21T00:57:54.182Z,2.35
2022-11-21T01:00:20.466Z,1.30
2022-11-21T01:02:46.678Z,1.60
2022-11-21T01:05:12.933Z,1.92
2022-11-21T01:07:39.265Z,1.92
2022-11-21T01:10:05.901Z,1.27
2022-11-21T01:12:32.134Z,1.92
2022-11-21T01:14:58.343Z,1.65
2022-11-21T01:17:24.581Z,1.83
2022-11-21T01:19:50.829Z,1.75
2022-11-21T01:22:17.089Z,2.03
2022-11-21T01:24:43.319Z,3.03
2022-11-21T01:27:09.543Z,2.35
2022-11-21T01:29:35.773Z,2.05
2022-11-21T01:32:02.031Z,1.88
2022-11-21T01:34:28.598Z,2.03
2022-11-21T01:36:55.069Z,2.63
2022-11-21T01:39:21.303Z,2.50
2022-11-21T01:41:47.555Z,2.67
2022-11-21T01:44:19.531Z,1.98
2022-11-21T01:46:46.043Z,2.00
2022-11-21T01:49:15.999Z,1.73
2022-11-21T01:52:01.139Z,2.15
2022-11-21T01:54:30.152Z,2.50
2022-11-21T01:56:59.391Z,2.10
2022-11-21T01:59:28.214Z,1.98
2022-11-21T02:01:55.377Z,1.98
2022-11-21T02:04:22.352Z,1.98
2022-11-21T02:09:14.847Z,2.13
2022-11-21T02:11:43.463Z,2.28
2022-11-21T02:14:09.866Z,2.10
2022-11-21T02:16:36.528Z,2.10
2022-11-21T02:19:03.493Z,2.15
2022-11-21T02:24:25.900Z,1.67
2022-11-21T02:26:52.371Z,1.63
2022-11-21T02:29:18.603Z,1.80
2022-11-21T02:31:44.984Z,1.60
2022-11-21T02:34:11.194Z,1.40
2022-11-21T02:36:42.672Z,1.95
2022-11-21T02:39:15.241Z,2.72
2022-11-21T02:41:45.076Z,1.35
2022-11-21T02:44:31.551Z,1.77
2022-11-21T02:46:57.835Z,1.30
2022-11-21T02:49:44.310Z,1.58
2022-11-21T02:52:10.607Z,1.73
2022-11-21T02:54:36.886Z,1.27
2022-11-21T02:57:03.165Z,1.40
2022-11-21T02:59:29.369Z,1.38
2022-11-21T03:01:59.571Z,1.48
2022-11-21T03:04:26.800Z,1.50
2022-11-21T03:06:53.255Z,2.08
2022-11-21T03:09:19.497Z,1.50
2022-11-21T03:11:45.808Z,1.30
2022-11-21T03:14:12.078Z,1.48
2022-11-21T03:16:38.351Z,1.83
2022-11-21T03:19:04.591Z,1.33
2022-11-21T03:21:30.798Z,1.48
2022-11-21T03:23:57.087Z,1.05
2022-11-21T03:26:23.330Z,1.55
2022-11-21T03:28:49.557Z,1.38
2022-11-21T03:31:15.791Z,1.40
2022-11-21T03:33:42.033Z,1.00
2022-11-21T03:36:08.337Z,0.88
2022-11-21T03:38:34.582Z,1.10
2022-11-21T03:41:26.856Z,1.00
2022-11-21T03:43:53.246Z,0.75
2022-11-21T03:46:19.501Z,1.27
2022-11-21T03:48:45.719Z,0.90
2022-11-21T03:51:11.937Z,0.98
2022-11-21T03:53:38.164Z,1.08
2022-11-21T03:56:04.491Z,0.90
2022-11-21T03:58:31.182Z,1.08
2022-11-21T04:00:57.509Z,0.95
2022-11-21T04:03:23.798Z,1.00
2022-11-21T04:05:50.019Z,1.10
2022-11-21T04:08:16.300Z,0.80
2022-11-21T04:10:49.185Z,1.10
2022-11-21T04:13:15.412Z,1.20
2022-11-21T04:15:41.836Z,0.80
2022-11-21T04:18:08.181Z,1.08
2022-11-21T04:20:34.471Z,1.00
2022-11-21T04:23:00.712Z,1.25
2022-11-21T04:25:26.991Z,1.23
2022-11-21T04:28:00.176Z,1.65
2022-11-21T04:30:26.667Z,1.42
2022-11-21T04:32:56.237Z,1.75
2022-11-21T04:35:23.532Z,2.65
2022-11-21T04:37:49.838Z,3.42
2022-11-21T04:40:16.534Z,1.48
2022-11-21T04:42:46.772Z,1.50
2022-11-21T04:45:13.473Z,3.65
2022-11-21T04:47:40.275Z,0.80
2022-11-21T04:50:07.358Z,1.20
2022-11-21T04:52:33.990Z,1.27
2022-11-21T04:55:00.201Z,1.20
2022-11-21T04:57:29.193Z,1.60
2022-11-21T04:59:55.535Z,1.17
2022-11-21T05:02:22.197Z,1.02
2022-11-21T05:04:48.476Z,1.50
2022-11-21T05:07:15.089Z,1.27
2022-11-21T05:09:41.363Z,1.50
2022-11-21T05:12:28.111Z,1.48
2022-11-21T05:14:54.410Z,1.55
2022-11-21T05:17:20.719Z,1.73
2022-11-21T05:19:47.029Z,1.58
2022-11-21T05:22:13.441Z,1.50
2022-11-21T05:24:39.710Z,1.55
2022-11-21T05:27:05.931Z,1.80
2022-11-21T05:29:32.242Z,1.80
2022-11-21T05:31:58.460Z,1.20
2022-11-21T05:34:24.710Z,1.67
2022-11-21T05:36:56.954Z,1.30
2022-11-21T05:39:23.247Z,1.60
2022-11-21T05:41:49.535Z,1.50
2022-11-21T05:44:15.768Z,1.50
2022-11-21T05:46:42.043Z,1.10
2022-11-21T05:49:08.391Z,1.42
2022-11-21T05:51:34.628Z,1.48
2022-11-21T05:54:01.007Z,1.52
2022-11-21T05:56:27.374Z,1.33
2022-11-21T05:58:57.557Z,1.77
2022-11-21T06:01:55.914Z,2.80
2022-11-21T06:04:22.415Z,2.85
2022-11-21T06:06:48.718Z,2.00
2022-11-21T06:09:14.967Z,3.03
2022-11-21T06:11:41.403Z,2.35
2022-11-21T06:14:07.703Z,1.92
2022-11-21T06:16:33.928Z,1.58
2022-11-21T06:19:00.166Z,1.50
2022-11-21T06:21:28.169Z,1.17
2022-11-21T06:23:55.890Z,2.35
2022-11-21T06:26:23.445Z,1.48
2022-11-21T06:28:49.729Z,1.50
2022-11-21T06:33:57.714Z,2.35
2022-11-21T06:36:24.335Z,1.95
2022-11-21T06:38:52.656Z,2.65
2022-11-21T06:41:19.927Z,1.90
2022-11-21T06:43:46.412Z,2.83
2022-11-21T06:46:13.682Z,2.65
2022-11-21T06:48:40.471Z,2.28
2022-11-21T06:51:14.699Z,4.30
2022-11-21T06:53:40.947Z,3.63
2022-11-21T06:56:07.225Z,2.53
2022-11-21T06:58:33.548Z,2.33
2022-11-21T07:01:03.918Z,2.22
2022-11-21T07:03:30.178Z,2.00
2022-11-21T07:06:01.442Z,2.17
2022-11-21T07:08:32.148Z,2.40
2022-11-21T07:11:25.594Z,2.10
2022-11-21T07:13:52.171Z,2.10
2022-11-21T07:16:18.407Z,2.15
2022-11-21T07:18:45.478Z,1.98
2022-11-21T07:21:11.752Z,2.30
2022-11-21T07:23:38.051Z,2.25
2022-11-21T07:26:05.570Z,1.77
2022-11-21T07:28:32.456Z,1.95
2022-11-21T07:33:25.058Z,2.42
2022-11-21T07:35:51.520Z,1.35
2022-11-21T07:38:17.823Z,2.38
2022-11-21T07:40:44.225Z,1.73
2022-11-21T07:43:11.061Z,1.88
2022-11-21T07:48:05.115Z,1.73
2022-11-21T07:50:31.628Z,2.00
2022-11-21T07:53:01.593Z,1.92
2022-11-21T07:55:31.351Z,1.67
2022-11-21T07:58:03.695Z,2.53
2022-11-21T08:00:30.944Z,1.38
2022-11-21T08:02:57.371Z,1.70
2022-11-21T08:05:23.906Z,2.00
2022-11-21T08:07:50.472Z,2.20
2022-11-21T08:10:17.061Z,1.77
2022-11-21T08:12:44.120Z,1.85
2022-11-21T08:15:10.628Z,2.40
2022-11-21T08:17:36.974Z,2.30
2022-11-21T08:20:04.266Z,1.80
2022-11-21T08:22:30.515Z,1.75
2022-11-21T08:24:56.748Z,3.30
2022-11-21T08:27:24.325Z,2.05
2022-11-21T08:29:50.663Z,1.83
2022-11-21T08:32:16.904Z,2.63
2022-11-21T08:34:43.169Z,2.80
2022-11-21T08:37:09.584Z,3.03
2022-11-21T08:39:35.858Z,2.65
2022-11-21T08:42:05.313Z,2.13
2022-11-21T08:44:32.440Z,2.20
2022-11-21T08:46:58.768Z,2.70
2022-11-21T08:49:25.086Z,2.28
2022-11-21T08:51:51.530Z,2.53
2022-11-21T08:54:18.158Z,2.05
2022-11-21T08:56:44.798Z,2.20
2022-11-21T08:59:11.090Z,2.67
2022-11-21T09:01:37.559Z,2.40
2022-11-21T09:04:04.752Z,1.90
2022-11-21T09:06:31.109Z,1.55
2022-11-21T09:08:57.374Z,2.22
2022-11-21T09:11:24.986Z,2.70
2022-11-21T09:14:10.561Z,2.53
2022-11-21T09:17:00.697Z,2.78
2022-11-21T09:19:28.523Z,2.55
2022-11-21T09:21:55.164Z,1.92
2022-11-21T09:24:21.405Z,2.22
2022-11-21T09:26:47.728Z,2.13
2022-11-21T09:29:15.009Z,2.33
2022-11-21T09:31:42.020Z,2.13
2022-11-21T09:36:34.759Z,2.17
2022-11-21T09:39:01.061Z,2.40
2022-11-21T09:41:54.548Z,2.45
2022-11-21T09:44:39.654Z,1.88
2022-11-21T09:47:15.191Z,1.95
2022-11-21T09:49:43.441Z,1.60
2022-11-21T09:52:11.487Z,1.60
2022-11-21T09:54:41.936Z,1.80
2022-11-21T09:57:10.564Z,1.90
2022-11-21T09:59:38.739Z,1.65
2022-11-21T10:02:13.674Z,1.90
2022-11-21T10:04:39.930Z,2.17
2022-11-21T10:07:10.142Z,1.92
2022-11-21T10:09:45.604Z,2.08
2022-11-21T10:12:39.633Z,2.28
2022-11-21T10:15:06.735Z,1.80
2022-11-21T10:17:51.552Z,1.95
2022-11-21T10:20:36.778Z,1.77
2022-11-21T10:23:18.336Z,2.72
2022-11-21T10:25:49.675Z,2.38
2022-11-21T10:31:44.286Z,1.95
2022-11-21T10:34:12.211Z,2.97
2022-11-21T10:36:39.854Z,4.32
2022-11-21T10:39:11.572Z,2.47
2022-11-21T10:41:48.353Z,2.47
2022-11-21T10:44:40.504Z,4.20
2022-11-21T10:47:13.119Z,2.70
2022-11-21T10:49:39.540Z,3.10
2022-11-21T10:52:11.935Z,3.28
2022-11-21T10:55:10.726Z,2.90
2022-11-21T10:57:42.741Z,3.60
2022-11-21T11:00:15.048Z,2.90
2022-11-21T11:02:42.943Z,3.25
2022-11-21T11:05:29.429Z,3.20
2022-11-21T11:08:03.448Z,2.10
2022-11-21T11:10:30.193Z,3.28
2022-11-21T11:13:44.519Z,2.55
2022-11-21T11:16:06.724Z,2.95
2022-11-21T11:18:34.638Z,2.10
2022-11-21T11:21:18.019Z,3.05
2022-11-21T11:23:44.528Z,1.90
2022-11-21T11:26:30.245Z,2.10
2022-11-21T11:29:13.104Z,2.03
2022-11-21T11:31:40.230Z,2.28
2022-11-21T11:34:10.219Z,1.92
2022-11-21T11:36:39.461Z,1.83
2022-11-21T11:39:10.440Z,3.03
2022-11-21T11:41:59.349Z,1.77
2022-11-21T11:44:49.962Z,1.80
2022-11-21T11:47:30.551Z,2.33
2022-11-21T11:50:12.699Z,2.28
2022-11-21T11:52:42.053Z,2.35
2022-11-21T11:55:15.323Z,2.88
2022-11-21T11:57:42.857Z,3.25
2022-11-21T12:00:21.759Z,3.80
2022-11-21T12:02:58.574Z,2.40
2022-11-21T12:05:26.066Z,2.95
2022-11-21T12:11:22.387Z,2.60
2022-11-21T12:13:52.148Z,2.35
2022-11-21T12:16:18.999Z,2.28
2022-11-21T12:21:15.555Z,2.75
2022-11-21T12:23:41.781Z,2.92
2022-11-21T12:26:07.991Z,2.53
2022-11-21T12:28:56.988Z,2.30
2022-11-21T12:31:32.400Z,2.55
2022-11-21T12:34:04.174Z,2.20
2022-11-21T12:36:48.955Z,2.92
2022-11-21T12:39:18.306Z,4.00
2022-11-21T12:42:09.510Z,3.35
2022-11-21T12:44:35.776Z,3.10
2022-11-21T12:47:11.159Z,3.00
2022-11-21T12:49:59.048Z,2.65
2022-11-21T12:52:50.258Z,3.08
2022-11-21T12:55:35.917Z,2.28
2022-11-21T12:58:05.001Z,2.33
2022-11-21T13:00:52.707Z,2.28
2022-11-21T13:03:28.827Z,2.22
2022-11-21T13:05:57.118Z,2.28
2022-11-21T13:08:26.068Z,2.42
2022-11-21T13:11:16.763Z,3.10
2022-11-21T13:13:43.826Z,2.75
2022-11-21T13:16:11.584Z,2.60
2022-11-21T13:18:45.605Z,3.45
2022-11-21T13:24:34.286Z,2.88
2022-11-21T13:27:00.513Z,2.85
2022-11-21T13:29:27.001Z,2.88
2022-11-21T13:31:53.434Z,2.92
2022-11-21T13:34:45.994Z,2.35
2022-11-21T13:37:32.205Z,4.53
2022-11-21T13:40:18.412Z,2.28
2022-11-21T13:43:32.566Z,1.88
2022-11-21T13:45:59.149Z,2.30
2022-11-21T13:48:28.185Z,3.42
2022-11-21T13:51:13.448Z,3.28
2022-11-21T13:53:58.476Z,2.85
2022-11-21T13:56:44.864Z,3.08
2022-11-21T13:59:17.289Z,2.88
2022-11-21T14:02:05.759Z,3.30
2022-11-21T14:04:32.015Z,3.40
2022-11-21T14:07:16.820Z,3.58
2022-11-21T14:09:48.171Z,2.30
2022-11-21T14:12:32.743Z,3.72
2022-11-21T14:15:00.056Z,4.38
2022-11-21T14:17:39.721Z,3.95
2022-11-21T14:20:14.999Z,3.13
2022-11-21T14:22:45.763Z,2.95
2022-11-21T14:25:19.358Z,2.70
2022-11-21T14:27:47.910Z,2.13
2022-11-21T14:30:26.293Z,1.95
2022-11-21T14:32:54.538Z,2.25
2022-11-21T14:35:22.697Z,2.80
2022-11-21T14:37:49.049Z,4.10
2022-11-21T14:40:22.977Z,2.10
2022-11-21T14:42:49.228Z,2.63
2022-11-21T14:45:22.685Z,2.38
2022-11-21T14:47:49.961Z,2.47
2022-11-21T14:52:42.450Z,2.50
2022-11-21T14:55:36.455Z,2.75
2022-11-21T14:58:03.341Z,5.15
2022-11-21T15:00:57.875Z,2.38
2022-11-21T15:03:23.725Z,2.70
2022-11-21T15:06:04.408Z,2.70
2022-11-21T15:11:22.318Z,2.78
2022-11-21T15:14:14.268Z,2.50
2022-11-21T15:19:08.494Z,4.25
2022-11-21T15:21:34.891Z,3.90
2022-11-21T15:24:15.714Z,3.80
2022-11-21T15:26:42.110Z,4.97
2022-11-21T15:29:19.163Z,5.35
2022-11-21T15:31:46.295Z,5.65
2022-11-21T15:34:34.227Z,4.88
2022-11-21T15:37:08.123Z,5.00
2022-11-21T15:39:34.523Z,4.97
2022-11-21T15:42:19.336Z,5.20
2022-11-21T15:44:58.987Z,4.50
2022-11-21T15:47:25.284Z,18.25
2022-11-21T15:49:51.525Z,5.03
2022-11-21T15:52:17.780Z,6.30
2022-11-21T15:54:44.039Z,5.28
2022-11-21T15:57:10.502Z,5.10
2022-11-21T15:59:36.888Z,4.60
2022-11-21T16:02:03.303Z,3.85
2022-11-21T16:04:29.577Z,3.53
2022-11-21T16:06:55.820Z,3.88
2022-11-21T16:09:22.081Z,4.72
2022-11-21T16:11:48.333Z,5.40
2022-11-21T16:14:15.417Z,4.50
2022-11-21T16:16:43.709Z,5.30
2022-11-21T16:19:10.987Z,6.55
2022-11-21T16:21:37.224Z,7.03
2022-11-21T16:24:03.652Z,5.90
2022-11-21T16:26:29.917Z,5.93
2022-11-21T16:28:56.822Z,4.97
2022-11-21T16:33:49.295Z,4.85
2022-11-21T16:36:41.746Z,5.93
2022-11-21T16:39:12.355Z,3.80
2022-11-21T16:41:41.556Z,4.50
2022-11-21T16:44:11.766Z,3.67
2022-11-21T16:46:41.408Z,5.00
2022-11-21T16:49:08.811Z,5.63
2022-11-21T16:51:35.120Z,6.22
2022-11-21T16:54:07.185Z,5.97
2022-11-21T16:56:34.946Z,5.00
2022-11-21T16:59:01.175Z,4.28
2022-11-21T17:01:28.456Z,4.55
2022-11-21T17:03:54.759Z,4.15
2022-11-21T17:06:22.055Z,3.35
2022-11-21T17:08:48.351Z,2.58
2022-11-21T17:11:15.809Z,3.17
2022-11-21T17:13:43.231Z,3.13
2022-11-21T17:16:10.120Z,3.03
2022-11-21T17:21:07.268Z,3.30
2022-11-21T17:23:33.721Z,4.78
2022-11-21T17:26:07.042Z,3.38
2022-11-21T17:28:33.504Z,3.00
2022-11-21T17:31:00.069Z,3.88
2022-11-21T17:33:26.525Z,3.63
2022-11-21T17:35:52.755Z,4.30
2022-11-21T17:38:18.975Z,4.10
2022-11-21T17:40:45.364Z,3.70
2022-11-21T17:43:11.652Z,4.45
2022-11-21T17:45:37.894Z,3.92
2022-11-21T17:48:04.223Z,3.88
2022-11-21T17:50:30.487Z,3.58
2022-11-21T17:52:57.072Z,3.25
2022-11-21T17:55:25.634Z,4.18
2022-11-21T17:57:51.858Z,3.90
2022-11-21T18:00:18.955Z,4.78
2022-11-21T18:02:45.335Z,4.70
2022-11-21T18:05:11.712Z,4.32
2022-11-21T18:07:38.005Z,3.03
2022-11-21T18:10:27.396Z,3.60
2022-11-21T18:12:51.528Z,3.50
2022-11-21T18:15:17.872Z,3.10
2022-11-21T18:17:44.108Z,3.67
2022-11-21T18:20:10.688Z,4.22
2022-11-21T18:22:37.266Z,4.35
2022-11-21T18:25:03.601Z,4.90
2022-11-21T18:27:30.320Z,5.18
2022-11-21T18:29:56.720Z,3.90
2022-11-21T18:32:22.946Z,3.20
2022-11-21T18:34:49.185Z,3.00
2022-11-21T18:37:15.420Z,2.90
2022-11-21T18:39:41.661Z,2.97
2022-11-21T18:42:07.890Z,2.33
2022-11-21T18:44:34.150Z,2.72
2022-11-21T18:47:00.389Z,2.80
2022-11-21T18:49:26.796Z,3.13
2022-11-21T18:51:53.189Z,4.32
2022-11-21T18:54:19.470Z,3.63
2022-11-21T18:56:46.983Z,3.33
2022-11-21T18:59:13.691Z,3.70
2022-11-21T19:01:40.165Z,3.90
2022-11-21T19:04:06.598Z,3.63
2022-11-21T19:06:32.887Z,4.00
2022-11-21T19:08:59.136Z,4.05
2022-11-21T19:11:26.856Z,5.20
2022-11-21T19:13:53.739Z,4.57
2022-11-21T19:16:21.993Z,4.47
2022-11-21T19:19:11.778Z,4.03
2022-11-21T19:21:36.946Z,3.67
2022-11-21T19:24:03.470Z,3.58
2022-11-21T19:26:30.920Z,3.33
2022-11-21T19:28:57.543Z,3.20
2022-11-21T19:31:23.802Z,3.30
2022-11-21T19:33:50.037Z,4.47
2022-11-21T19:36:17.621Z,2.65
2022-11-21T19:38:50.237Z,3.55
2022-11-21T19:41:18.943Z,3.30
2022-11-21T19:43:46.359Z,3.28
2022-11-21T19:46:13.684Z,3.53
2022-11-21T19:48:40.273Z,3.85
2022-11-21T19:51:06.676Z,3.42
2022-11-21T19:53:36.868Z,4.43
2022-11-21T19:56:10.859Z,3.60
2022-11-21T19:58:37.112Z,3.40
2022-11-21T20:01:13.476Z,3.17
2022-11-21T20:03:41.248Z,3.72
2022-11-21T20:06:09.005Z,3.45
2022-11-21T20:08:35.265Z,3.80
2022-11-21T20:11:11.111Z,4.03
2022-11-21T20:13:40.848Z,3.58
2022-11-21T20:16:08.660Z,4.32
2022-11-21T20:18:35.887Z,6.53
2022-11-21T20:21:12.190Z,5.55
2022-11-21T20:23:38.818Z,4.85
2022-11-21T20:26:06.237Z,5.60
2022-11-21T20:28:33.919Z,5.15
2022-11-21T20:31:04.064Z,5.03
2022-11-21T20:33:33.744Z,5.65
2022-11-21T20:36:07.505Z,4.47
2022-11-21T20:38:33.790Z,4.50
2022-11-21T20:41:00.226Z,3.42
2022-11-21T20:43:44.186Z,4.40
2022-11-21T20:46:18.715Z,4.35
2022-11-21T20:48:46.582Z,3.85
2022-11-21T20:54:03.400Z,4.32
2022-11-21T20:56:34.482Z,4.80
2022-11-21T20:59:00.743Z,6.55
2022-11-21T21:01:27.779Z,6.55
2022-11-21T21:03:54.368Z,9.75
2022-11-21T21:06:21.051Z,6.57
2022-11-21T21:08:47.743Z,17.70
2022-11-21T21:11:36.707Z,13.68
2022-11-21T21:14:01.192Z,11.40
2022-11-21T21:16:34.150Z,8.23
2022-11-21T21:19:00.418Z,10.07
2022-11-21T21:21:28.318Z,9.38
2022-11-21T21:23:55.566Z,5.38
2022-11-21T21:26:23.583Z,6.82
2022-11-21T21:28:50.094Z,8.27
2022-11-21T21:31:17.772Z,6.38
2022-11-21T21:33:44.418Z,5.88
2022-11-21T21:36:12.061Z,5.38
2022-11-21T21:38:38.589Z,5.32
2022-11-21T21:41:06.010Z,7.28
2022-11-21T21:43:32.749Z,5.50
2022-11-21T21:46:18.070Z,8.13
2022-11-21T21:48:44.963Z,7.20
2022-11-21T21:53:37.828Z,8.35
2022-11-21T21:56:04.756Z,8.82
2022-11-21T22:01:07.090Z,6.78
2022-11-21T22:03:33.451Z,7.40
2022-11-21T22:06:03.333Z,11.45
2022-11-21T22:08:30.776Z,9.35
2022-11-21T22:11:02.865Z,15.65
2022-11-21T22:13:29.370Z,8.98
2022-11-21T22:15:56.424Z,7.55
2022-11-21T22:18:22.683Z,8.35
2022-11-21T22:20:48.894Z,6.15
2022-11-21T22:23:15.321Z,11.63
2022-11-21T22:25:41.565Z,6.78
2022-11-21T22:28:07.807Z,5.32
2022-11-21T22:30:34.081Z,4.93
2022-11-21T22:33:00.314Z,5.25
2022-11-21T22:35:26.604Z,7.18
2022-11-21T22:37:52.834Z,6.30
2022-11-21T22:40:19.298Z,7.97
2022-11-21T22:42:45.526Z,7.65
2022-11-21T22:45:11.757Z,10.65
2022-11-21T22:47:37.981Z,10.75
2022-11-21T22:50:04.493Z,10.65
2022-11-21T22:52:31.762Z,8.30
2022-11-21T22:54:58.266Z,7.07
2022-11-21T22:57:24.524Z,7.03
2022-11-21T22:59:50.781Z,6.55
2022-11-21T23:02:17.131Z,6.55
2022-11-21T23:04:43.373Z,6.80
2022-11-21T23:07:09.755Z,6.97
2022-11-21T23:09:36.281Z,6.90
2022-11-21T23:12:02.564Z,6.60
2022-11-21T23:14:29.018Z,9.07
2022-11-21T23:16:55.791Z,10.00
2022-11-21T23:19:22.026Z,9.63
2022-11-21T23:21:48.280Z,11.90
2022-11-21T23:24:14.518Z,12.15
2022-11-21T23:26:40.742Z,9.32
2022-11-21T23:29:09.029Z,9.52
2022-11-21T23:31:35.772Z,8.35
2022-11-21T23:34:02.079Z,7.75
2022-11-21T23:36:28.324Z,8.55
2022-11-21T23:38:54.558Z,8.43
2022-11-21T23:41:20.778Z,7.80
2022-11-21T23:43:47.027Z,6.95
2022-11-21T23:46:13.234Z,7.63
2022-11-21T23:48:39.454Z,6.45
2022-11-21T23:51:05.663Z,7.15
2022-11-21T23:53:31.907Z,5.80
2022-11-21T23:55:58.131Z,5.85
2022-11-21T23:58:24.399Z,5.50
